Time;durP1;ratioP1;P1;durP2;ratioP2;P2;SDS_P1;SDS_P2;PMS_P1;PMS_P2;Temp;Humidity;BMP_temperature;BMP_pressure;BME280_temperature;BME280_humidity;BME280_pressure;Samples;Min_cycle;Max_cycle;Signal;HPM_P1;HPM_P2
2021/11/26 00:02:23;;;;;;;11.80;6.43;;;21.80;50.30;;;;;;5195148;28;20048;-49
2021/11/26 00:04:57;;;;;;;12.90;6.82;;;21.80;50.30;;;;;;5207121;28;20064;-48
2021/11/26 00:07:30;;;;;;;15.45;6.97;;;21.80;50.10;;;;;;5173515;28;20055;-50
2021/11/26 00:10:03;;;;;;;11.85;7.30;;;21.80;50.10;;;;;;5172587;28;20044;-52
2021/11/26 00:12:36;;;;;;;13.90;6.90;;;21.80;50.10;;;;;;5173703;28;20053;-47
2021/11/26 00:15:23;;;;;;;13.47;7.10;;;21.80;50.10;;;;;;5174983;28;20050;-50
2021/11/26 00:17:57;;;;;;;11.30;6.85;;;21.80;50.00;;;;;;5198092;28;20056;-47
2021/11/26 00:20:30;;;;;;;11.57;6.78;;;21.80;50.00;;;;;;5187850;28;20045;-46
2021/11/26 00:23:03;;;;;;;10.93;6.13;;;21.80;49.90;;;;;;5186538;28;20052;-52
2021/11/26 00:25:36;;;;;;;12.43;6.10;;;21.80;49.80;;;;;;5194151;28;20062;-48
2021/11/26 00:28:09;;;;;;;10.82;6.38;;;21.80;49.90;;;;;;5195947;28;20044;-50
2021/11/26 00:30:41;;;;;;;14.38;7.10;;;21.80;49.80;;;;;;5190630;28;20045;-46
2021/11/26 00:33:15;;;;;;;14.40;6.53;;;21.80;49.80;;;;;;5193696;28;20040;-47
2021/11/26 00:35:48;;;;;;;;;;;21.80;49.90;;;;;;5190647;28;20059;-50
2021/11/26 00:38:20;;;;;;;9.93;6.82;;;21.70;49.80;;;;;;5179559;28;20179;-52
2021/11/26 00:40:52;;;;;;;13.00;6.25;;;21.70;49.90;;;;;;5177970;28;20053;-47
2021/11/26 00:43:25;;;;;;;10.35;6.85;;;21.70;49.90;;;;;;5199709;28;20064;-47
2021/11/26 00:45:57;;;;;;;10.10;6.53;;;21.80;50.00;;;;;;5198002;28;20045;-49
2021/11/26 00:48:30;;;;;;;10.18;6.60;;;21.80;50.00;;;;;;5192774;28;20045;-47
2021/11/26 00:51:02;;;;;;;11.05;6.47;;;21.80;50.10;;;;;;5201708;28;20052;-47
2021/11/26 00:53:35;;;;;;;11.30;7.13;;;21.80;50.10;;;;;;5199170;28;20069;-47
2021/11/26 00:56:08;;;;;;;12.60;6.90;;;21.80;50.10;;;;;;5197536;28;20040;-51
2021/11/26 00:58:41;;;;;;;12.25;6.45;;;21.80;50.10;;;;;;5199159;28;20057;-46
2021/11/26 01:01:13;;;;;;;11.90;6.38;;;21.80;50.10;;;;;;5179633;28;20052;-50
2021/11/26 01:03:46;;;;;;;9.80;6.43;;;21.80;50.10;;;;;;5198904;28;20049;-50
2021/11/26 01:06:18;;;;;;;12.82;6.57;;;21.70;50.00;;;;;;5195550;28;20385;-51
2021/11/26 01:08:51;;;;;;;14.32;7.05;;;21.80;50.00;;;;;;5192141;28;20037;-49
2021/11/26 01:11:23;;;;;;;12.00;6.68;;;21.70;50.00;;;;;;5190660;28;20046;-52
2021/11/26 01:13:56;;;;;;;10.00;6.63;;;21.80;50.10;;;;;;5193065;28;20684;-49
2021/11/26 01:16:29;;;;;;;11.70;6.25;;;21.80;50.00;;;;;;5194390;28;20284;-47
2021/11/26 01:19:01;;;;;;;10.10;6.40;;;21.80;50.00;;;;;;5197076;28;20037;-52
2021/11/26 01:21:34;;;;;;;14.00;7.53;;;21.70;49.80;;;;;;5195551;28;20044;-47
2021/11/26 01:24:06;;;;;;;9.48;6.18;;;21.70;49.80;;;;;;5199841;28;20044;-53
2021/11/26 01:26:39;;;;;;;10.07;6.45;;;21.70;49.70;;;;;;5197754;28;20056;-52
2021/11/26 01:29:11;;;;;;;8.40;5.78;;;21.80;49.80;;;;;;5197929;28;20393;-50
2021/11/26 01:31:45;;;;;;;10.43;6.53;;;21.70;49.60;;;;;;5195804;28;20048;-50
2021/11/26 01:34:17;;;;;;;9.88;6.10;;;21.70;49.80;;;;;;5196140;28;20042;-51
2021/11/26 01:36:50;;;;;;;10.57;6.40;;;21.70;49.60;;;;;;5190443;28;20044;-47
2021/11/26 01:39:24;;;;;;;9.05;5.95;;;21.70;49.60;;;;;;5201052;28;20511;-49
2021/11/26 01:41:57;;;;;;;9.98;5.95;;;21.70;49.70;;;;;;5198126;28;20049;-49
2021/11/26 01:44:29;;;;;;;8.63;6.00;;;21.70;49.60;;;;;;5193635;28;20087;-47
2021/11/26 01:47:03;;;;;;;8.80;5.80;;;21.70;49.60;;;;;;5195167;28;20037;-49
2021/11/26 01:49:36;;;;;;;8.18;5.75;;;21.70;49.60;;;;;;5190656;28;20053;-50
2021/11/26 01:52:08;;;;;;;9.45;5.85;;;21.70;49.60;;;;;;5192667;28;20041;-51
2021/11/26 01:54:40;;;;;;;8.57;5.90;;;21.70;49.60;;;;;;5188595;28;20049;-47
2021/11/26 01:57:15;;;;;;;8.48;5.35;;;21.70;49.60;;;;;;5194363;28;20053;-47
2021/11/26 01:59:49;;;;;;;9.70;5.47;;;21.70;49.50;;;;;;5173175;28;20037;-49
2021/11/26 02:02:21;;;;;;;8.88;5.45;;;21.70;49.50;;;;;;5188045;28;20407;-48
2021/11/26 02:04:54;;;;;;;8.10;5.80;;;21.70;49.50;;;;;;5192924;28;20056;-47
2021/11/26 02:07:27;;;;;;;8.73;6.20;;;21.70;49.50;;;;;;5196122;28;20045;-50
2021/11/26 02:09:59;;;;;;;10.07;6.03;;;21.70;49.40;;;;;;5194377;28;20056;-49
2021/11/26 02:12:32;;;;;;;8.55;5.80;;;21.70;49.40;;;;;;5191807;28;20632;-49
2021/11/26 02:15:05;;;;;;;10.13;6.30;;;21.70;49.40;;;;;;5178408;28;20045;-49
2021/11/26 02:17:37;;;;;;;9.50;5.90;;;21.70;49.40;;;;;;5192059;28;20056;-48
2021/11/26 02:20:15;;;;;;;7.93;5.57;;;21.70;49.30;;;;;;5190821;28;20041;-50
2021/11/26 02:22:50;;;;;;;8.57;5.75;;;21.70;49.30;;;;;;5196354;28;20091;-49
2021/11/26 02:25:24;;;;;;;9.63;6.18;;;21.70;49.30;;;;;;5189562;28;20123;-50
2021/11/26 02:27:59;;;;;;;9.48;5.85;;;21.70;49.30;;;;;;5185628;28;20042;-51
2021/11/26 02:30:32;;;;;;;14.07;6.13;;;21.70;49.30;;;;;;5189690;28;20049;-52
2021/11/26 02:33:11;;;;;;;10.73;5.75;;;21.70;49.40;;;;;;5193697;28;20523;-49
2021/11/26 02:35:45;;;;;;;11.13;5.72;;;21.70;49.50;;;;;;5193230;28;20415;-52
2021/11/26 02:38:19;;;;;;;12.23;6.05;;;21.70;49.40;;;;;;5191777;28;20037;-54
2021/11/26 02:40:52;;;;;;;9.98;6.38;;;21.70;49.40;;;;;;5192281;28;20048;-50
2021/11/26 02:43:25;;;;;;;10.30;5.90;;;21.70;49.50;;;;;;5185671;28;20045;-50
2021/11/26 02:45:58;;;;;;;11.95;5.68;;;21.70;49.40;;;;;;5180550;28;20339;-50
2021/11/26 02:48:31;;;;;;;10.10;5.38;;;21.70;49.50;;;;;;5190479;28;21082;-50
2021/11/26 02:51:04;;;;;;;9.98;5.43;;;21.70;49.50;;;;;;5194894;28;20045;-51
2021/11/26 02:53:36;;;;;;;7.93;5.38;;;21.70;49.50;;;;;;5183942;28;21149;-49
2021/11/26 02:56:09;;;;;;;8.20;5.22;;;21.70;49.50;;;;;;5191750;28;20057;-52
2021/11/26 02:58:41;;;;;;;9.75;6.32;;;21.70;49.40;;;;;;5188784;28;20061;-51
2021/11/26 03:01:14;;;;;;;9.27;5.60;;;21.60;49.30;;;;;;5156965;28;20060;-50
2021/11/26 03:03:47;;;;;;;9.35;6.03;;;21.60;49.30;;;;;;5177240;28;20436;-50
2021/11/26 03:06:20;;;;;;;9.60;5.93;;;21.60;49.30;;;;;;5196655;28;20053;-50
2021/11/26 03:08:52;;;;;;;10.25;6.07;;;21.60;49.30;;;;;;5192657;28;20041;-52
2021/11/26 03:11:25;;;;;;;8.45;5.57;;;21.60;49.30;;;;;;5192618;28;20472;-51
2021/11/26 03:13:57;;;;;;;7.47;5.25;;;21.60;49.30;;;;;;5191228;28;20052;-48
2021/11/26 03:16:29;;;;;;;7.63;5.30;;;21.60;49.20;;;;;;5188912;28;20041;-53
2021/11/26 03:19:02;;;;;;;10.13;5.38;;;21.60;49.20;;;;;;5187250;28;20053;-49
2021/11/26 03:21:34;;;;;;;9.85;6.00;;;21.60;49.20;;;;;;5187869;28;20048;-49
2021/11/26 03:24:07;;;;;;;8.73;5.75;;;21.60;49.20;;;;;;5198738;28;20388;-51
2021/11/26 03:26:39;;;;;;;8.23;5.25;;;21.60;49.10;;;;;;5194903;28;20060;-48
2021/11/26 03:29:12;;;;;;;7.72;5.57;;;21.60;49.20;;;;;;5194709;28;20042;-49
2021/11/26 03:31:44;;;;;;;7.28;5.43;;;21.60;49.10;;;;;;5191171;28;20103;-52
2021/11/26 03:34:17;;;;;;;7.33;5.30;;;21.60;49.70;;;;;;5168364;28;20048;-47
2021/11/26 03:36:49;;;;;;;9.43;5.70;;;21.60;49.20;;;;;;5181146;28;20041;-48
2021/11/26 03:39:22;;;;;;;7.57;5.30;;;21.60;49.20;;;;;;5189519;28;20049;-49
2021/11/26 03:41:54;;;;;;;8.15;5.57;;;21.60;49.20;;;;;;5192207;28;20159;-52
2021/11/26 03:44:27;;;;;;;9.77;5.70;;;21.60;49.20;;;;;;5172738;28;20045;-50
2021/11/26 03:47:03;;;;;;;8.07;5.78;;;21.60;49.20;;;;;;5188480;28;20041;-50
2021/11/26 03:49:35;;;;;;;10.30;5.60;;;21.60;49.30;;;;;;5187814;28;20061;-51
2021/11/26 03:52:08;;;;;;;9.70;5.25;;;21.60;49.30;;;;;;5172671;28;20042;-54
2021/11/26 03:54:41;;;;;;;10.30;5.80;;;21.60;50.00;;;;;;5175184;28;21597;-53
2021/11/26 03:57:14;;;;;;;10.07;5.30;;;21.60;49.30;;;;;;5185680;28;20033;-48
2021/11/26 03:59:47;;;;;;;14.85;5.47;;;21.60;49.30;;;;;;5195585;28;20056;-48
2021/11/26 04:02:20;;;;;;;10.40;5.47;;;21.60;49.30;;;;;;5187462;28;20045;-52
2021/11/26 04:04:52;;;;;;;9.00;5.97;;;21.60;49.40;;;;;;5191604;28;20496;-49
2021/11/26 04:07:25;;;;;;;12.35;5.78;;;21.60;49.40;;;;;;5191926;28;20048;-54
2021/11/26 04:09:58;;;;;;;9.68;5.50;;;21.60;49.50;;;;;;5189121;28;21109;-50
2021/11/26 04:12:30;;;;;;;10.20;5.90;;;21.50;49.40;;;;;;5176314;28;20048;-52
2021/11/26 04:15:08;;;;;;;11.02;6.00;;;21.60;49.50;;;;;;5187584;28;20480;-48
2021/11/26 04:17:42;;;;;;;12.52;5.22;;;21.60;49.50;;;;;;5189720;28;20037;-48
2021/11/26 04:20:16;;;;;;;8.70;5.63;;;21.60;49.50;;;;;;5187960;28;20044;-49
2021/11/26 04:22:49;;;;;;;8.68;5.72;;;21.60;49.50;;;;;;5186823;28;20411;-50
2021/11/26 04:25:21;;;;;;;9.95;6.25;;;21.60;49.50;;;;;;5168236;28;20336;-47
2021/11/26 04:27:54;;;;;;;8.95;5.43;;;21.60;49.50;;;;;;5170024;28;20315;-53
2021/11/26 04:30:29;;;;;;;8.88;5.28;;;21.60;49.50;;;;;;5183530;28;20038;-49
2021/11/26 04:33:02;;;;;;;7.97;5.45;;;21.60;49.50;;;;;;5175679;28;21052;-51
2021/11/26 04:35:34;;;;;;;8.33;5.00;;;21.60;49.50;;;;;;5181123;28;20949;-50
2021/11/26 04:38:07;;;;;;;8.73;5.10;;;21.60;49.50;;;;;;5164059;28;20306;-48
2021/11/26 04:40:39;;;;;;;9.85;5.22;;;21.60;49.60;;;;;;5185817;28;20730;-49
2021/11/26 04:43:13;;;;;;;7.50;4.55;;;21.60;49.60;;;;;;5181063;28;20493;-49
2021/11/26 04:45:49;;;;;;;9.00;5.47;;;21.60;49.70;;;;;;5174666;28;20053;-51
2021/11/26 04:48:24;;;;;;;7.28;5.00;;;21.60;49.70;;;;;;5174620;28;20417;-50
2021/11/26 04:50:56;;;;;;;7.57;5.30;;;21.60;49.90;;;;;;5185059;28;20045;-52
2021/11/26 04:53:29;;;;;;;7.45;4.70;;;21.60;49.90;;;;;;5179895;28;20555;-52
2021/11/26 04:56:01;;;;;;;9.20;5.13;;;21.60;49.90;;;;;;5145029;28;20045;-55
2021/11/26 04:58:37;;;;;;;7.22;4.75;;;21.60;49.90;;;;;;5179164;28;20049;-52
2021/11/26 05:01:09;;;;;;;6.75;4.70;;;21.60;50.10;;;;;;5174667;28;20064;-52
2021/11/26 05:03:42;;;;;;;6.27;4.33;;;21.50;50.00;;;;;;5178739;28;20053;-49
2021/11/26 05:06:14;;;;;;;7.68;4.78;;;21.50;50.10;;;;;;5161940;28;20122;-51
2021/11/26 05:08:47;;;;;;;6.30;4.50;;;21.50;50.20;;;;;;5162149;28;20396;-49
2021/11/26 05:11:20;;;;;;;8.20;4.80;;;21.50;50.10;;;;;;5174964;28;20436;-48
2021/11/26 05:13:55;;;;;;;6.90;4.47;;;21.50;50.20;;;;;;5169619;28;20052;-46
2021/11/26 05:16:27;;;;;;;6.32;4.55;;;21.50;50.30;;;;;;5174219;28;20041;-50
2021/11/26 05:19:00;;;;;;;6.65;4.70;;;21.50;50.30;;;;;;5164549;28;20053;-50
2021/11/26 05:21:32;;;;;;;8.32;4.38;;;21.50;50.30;;;;;;5164036;28;20340;-47
2021/11/26 05:24:05;;;;;;;10.13;5.03;;;21.50;50.40;;;;;;5178599;28;20046;-53
2021/11/26 05:26:39;;;;;;;13.25;4.55;;;21.50;50.50;;;;;;5167659;28;20045;-47
2021/11/26 05:29:11;;;;;;;8.30;4.63;;;21.50;50.50;;;;;;5186450;28;20048;-49
2021/11/26 05:31:43;;;;;;;12.18;4.43;;;21.50;50.50;;;;;;5161377;28;20408;-47
2021/11/26 05:34:16;;;;;;;7.22;4.30;;;21.50;50.80;;;;;;5171007;28;20065;-50
2021/11/26 05:36:48;;;;;;;11.18;4.70;;;21.60;50.70;;;;;;5189803;28;21452;-49
2021/11/26 05:39:21;;;;;;;13.50;4.53;;;21.60;50.70;;;;;;5190414;28;20049;-50
2021/11/26 05:41:53;;;;;;;6.47;4.68;;;21.60;50.60;;;;;;5171418;28;20050;-49
2021/11/26 05:44:26;;;;;;;12.75;4.80;;;21.60;50.60;;;;;;5185841;28;20053;-49
2021/11/26 05:46:58;;;;;;;11.77;4.82;;;21.60;50.60;;;;;;5184313;28;20052;-48
2021/11/26 05:49:30;;;;;;;6.10;4.70;;;21.60;50.60;;;;;;5171200;28;20042;-47
2021/11/26 05:52:03;;;;;;;7.97;4.65;;;21.70;50.70;;;;;;5168369;28;20255;-47
2021/11/26 05:54:37;;;;;;;11.30;4.70;;;21.70;50.70;;;;;;5186306;28;20083;-47
2021/11/26 05:57:09;;;;;;;13.27;4.95;;;21.70;50.70;;;;;;5189382;28;20295;-45
2021/11/26 05:59:42;;;;;;;12.90;4.85;;;21.70;50.70;;;;;;5172752;28;20053;-49
2021/11/26 06:02:14;;;;;;;14.55;4.93;;;21.70;50.90;;;;;;5197578;28;20046;-46
2021/11/26 06:04:47;;;;;;;22.30;6.13;;;21.80;51.00;;;;;;5188393;28;20044;-51
2021/11/26 06:07:19;;;;;;;17.50;5.75;;;21.80;51.10;;;;;;5191190;28;20519;-45
2021/11/26 06:09:52;;;;;;;21.27;6.05;;;21.80;51.30;;;;;;5189132;28;20037;-50
2021/11/26 06:12:24;;;;;;;19.50;5.50;;;21.80;51.10;;;;;;5197783;28;20041;-48
2021/11/26 06:14:57;;;;;;;21.67;5.95;;;21.80;51.00;;;;;;5195754;28;20052;-50
2021/11/26 06:17:29;;;;;;;17.65;5.78;;;21.80;51.00;;;;;;5185800;28;20045;-49
2021/11/26 06:20:03;;;;;;;14.48;5.18;;;21.80;50.90;;;;;;5175564;28;20056;-47
2021/11/26 06:22:36;;;;;;;16.90;5.38;;;21.80;50.90;;;;;;5184432;28;20053;-46
2021/11/26 06:25:11;;;;;;;13.80;5.38;;;21.90;51.00;;;;;;5197815;28;20049;-46
2021/11/26 06:27:44;;;;;;;14.48;5.32;;;21.90;50.90;;;;;;5201533;28;20534;-48
2021/11/26 06:30:19;;;;;;;20.95;5.30;;;21.90;50.90;;;;;;5202690;28;20034;-48
2021/11/26 06:32:52;;;;;;;17.85;5.68;;;21.90;50.90;;;;;;5193003;28;20072;-49
2021/11/26 06:35:25;;;;;;;18.38;5.63;;;21.90;50.80;;;;;;5169267;28;20041;-48
2021/11/26 06:37:57;;;;;;;18.85;6.25;;;21.90;50.80;;;;;;5198647;28;20041;-46
2021/11/26 06:40:30;;;;;;;16.40;6.07;;;22.00;50.80;;;;;;5202209;28;20045;-49
2021/11/26 06:43:02;;;;;;;11.30;4.80;;;21.90;50.70;;;;;;5197435;28;20045;-46
2021/11/26 06:45:35;;;;;;;11.75;6.13;;;21.90;50.60;;;;;;5198285;28;20056;-50
2021/11/26 06:48:07;;;;;;;14.98;5.60;;;22.00;50.60;;;;;;5178454;28;20044;-47
2021/11/26 06:50:40;;;;;;;15.70;5.25;;;21.90;50.60;;;;;;5195016;28;20049;-46
2021/11/26 06:53:12;;;;;;;17.80;5.05;;;22.00;50.60;;;;;;5191930;28;20041;-45
2021/11/26 06:55:45;;;;;;;19.10;6.40;;;22.00;50.50;;;;;;5191652;28;20045;-46
2021/11/26 06:58:18;;;;;;;13.45;5.35;;;22.00;50.50;;;;;;5179421;28;20456;-45
2021/11/26 07:00:50;;;;;;;21.42;6.00;;;22.00;50.50;;;;;;5176454;28;20053;-45
2021/11/26 07:03:23;;;;;;;22.97;5.70;;;22.00;50.40;;;;;;5171222;28;20049;-49
2021/11/26 07:05:55;;;;;;;13.77;5.65;;;22.00;50.40;;;;;;5189822;28;21021;-47
2021/11/26 07:08:28;;;;;;;13.02;5.55;;;22.00;50.40;;;;;;5159396;28;20068;-46
2021/11/26 07:11:00;;;;;;;14.75;5.45;;;22.00;50.30;;;;;;5177591;28;20047;-47
2021/11/26 07:13:33;;;;;;;13.15;6.00;;;22.00;50.20;;;;;;5178603;28;20378;-45
2021/11/26 07:16:05;;;;;;;18.95;5.88;;;22.00;50.20;;;;;;5175793;28;20049;-46
2021/11/26 07:18:37;;;;;;;13.15;5.25;;;22.00;50.10;;;;;;5167433;28;20041;-46
2021/11/26 07:21:10;;;;;;;9.32;5.20;;;22.00;50.00;;;;;;5161867;28;20052;-46
2021/11/26 07:23:42;;;;;;;12.05;5.88;;;22.00;49.90;;;;;;5169886;28;20041;-45
2021/11/26 07:26:15;;;;;;;11.27;4.90;;;22.00;49.90;;;;;;5178981;28;20049;-46
2021/11/26 07:28:48;;;;;;;10.18;4.95;;;22.00;49.90;;;;;;5172551;28;20063;-46
2021/11/26 07:31:20;;;;;;;12.15;6.22;;;22.00;49.90;;;;;;5170908;28;20044;-47
2021/11/26 07:33:53;;;;;;;11.87;5.13;;;22.00;49.90;;;;;;5172110;28;20061;-46
2021/11/26 07:36:28;;;;;;;11.35;5.15;;;22.00;49.80;;;;;;5169356;28;20056;-45
2021/11/26 07:39:01;;;;;;;10.38;5.53;;;22.10;49.80;;;;;;5159872;28;20045;-49
2021/11/26 07:41:34;;;;;;;;;;;22.00;49.60;;;;;;5177666;28;20040;-49
2021/11/26 07:44:06;;;;;;;9.45;4.68;;;22.00;49.60;;;;;;5162585;28;21257;-46
2021/11/26 07:46:39;;;;;;;12.68;4.90;;;22.00;49.70;;;;;;5147455;23;20055;-80
2021/11/26 07:49:11;;;;;;;10.38;4.95;;;22.10;49.70;;;;;;5156994;28;20483;-82
2021/11/26 07:51:44;;;;;;;9.63;4.97;;;22.00;49.60;;;;;;5155069;28;22583;-81
2021/11/26 07:54:16;;;;;;;11.15;4.65;;;22.00;49.60;;;;;;5166626;28;20042;-81
2021/11/26 07:56:49;;;;;;;8.65;4.53;;;22.00;49.60;;;;;;5144456;28;20070;-80
2021/11/26 07:59:23;;;;;;;10.20;4.75;;;22.10;49.70;;;;;;5162750;28;20050;-81
2021/11/26 08:01:56;;;;;;;8.90;4.70;;;22.10;49.70;;;;;;5161939;28;20041;-80
2021/11/26 08:04:29;;;;;;;10.98;4.38;;;22.10;49.70;;;;;;5161164;28;20464;-81
2021/11/26 08:07:01;;;;;;;7.47;4.18;;;22.00;49.60;;;;;;5153888;28;20046;-81
2021/11/26 08:09:34;;;;;;;8.70;4.00;;;22.10;49.60;;;;;;5154618;28;20046;-81
2021/11/26 08:12:09;;;;;;;10.88;4.07;;;22.00;49.60;;;;;;5135450;28;20056;-79
2021/11/26 08:14:43;;;;;;;28.48;4.88;;;22.10;49.70;;;;;;5155852;28;20052;-81
2021/11/26 08:17:16;;;;;;;16.70;4.37;;;22.10;50.10;;;;;;5155620;28;20407;-82
2021/11/26 08:19:48;;;;;;;20.80;4.10;;;22.10;50.30;;;;;;5155139;28;20046;-80
2021/11/26 08:22:41;;;;;;;8.63;4.50;;;22.10;50.10;;;;;;5159143;28;20396;-82
2021/11/26 08:25:17;;;;;;;16.02;4.20;;;22.10;50.00;;;;;;5162182;28;20072;-81
2021/11/26 08:27:51;;;;;;;22.80;6.20;;;22.10;50.00;;;;;;5160211;28;20050;-81
2021/11/26 08:30:24;;;;;;;14.10;4.13;;;22.20;50.00;;;;;;5152630;28;20050;-81
2021/11/26 08:32:57;;;;;;;9.38;4.68;;;22.10;49.90;;;;;;5160901;28;20052;-80
2021/11/26 08:35:29;;;;;;;13.98;5.25;;;22.20;49.90;;;;;;5159614;28;20499;-82
2021/11/26 08:38:02;;;;;;;10.20;3.75;;;22.20;49.90;;;;;;5158156;28;20041;-81
2021/11/26 08:40:35;;;;;;;7.30;3.50;;;22.30;50.60;;;;;;5126075;28;20058;-81
2021/11/26 08:43:08;;;;;;;9.65;3.50;;;22.30;50.60;;;;;;5161986;28;20049;-81
2021/11/26 08:45:41;;;;;;;6.93;3.30;;;22.30;50.40;;;;;;5163817;28;20061;-82
2021/11/26 08:48:14;;;;;;;8.85;3.55;;;22.30;50.30;;;;;;5160282;28;20050;-81
2021/11/26 16:30:19;;;;;;;11.30;3.15;;;22.50;52.10;;;;;;5181518;22;20056;-50
2021/11/26 16:32:57;;;;;;;15.95;3.08;;;22.50;51.70;;;;;;5237436;28;20079;-48
2021/11/26 16:35:36;;;;;;;18.08;2.83;;;22.50;51.60;;;;;;5198149;28;20421;-48
2021/11/26 16:38:09;;;;;;;22.92;2.88;;;22.50;51.40;;;;;;5231591;28;20049;-49
2021/11/26 16:40:42;;;;;;;7.85;2.80;;;22.50;51.20;;;;;;5222550;28;20044;-49
2021/11/26 16:43:16;;;;;;;8.90;3.88;;;22.60;51.20;;;;;;5219242;28;20213;-48
2021/11/26 16:45:49;;;;;;;7.78;3.08;;;22.60;51.10;;;;;;5234761;28;20407;-51
2021/11/26 16:48:21;;;;;;;13.90;3.63;;;22.60;51.00;;;;;;5230319;28;20051;-52
2021/11/26 16:50:55;;;;;;;14.13;3.00;;;22.60;51.20;;;;;;5215332;28;20044;-52
2021/11/26 16:53:27;;;;;;;7.53;2.83;;;22.60;50.80;;;;;;5235594;28;20055;-48
2021/11/26 16:56:00;;;;;;;7.80;2.85;;;22.60;50.70;;;;;;5224129;28;20048;-52
2021/11/26 16:58:32;;;;;;;7.28;2.72;;;22.60;50.60;;;;;;5212116;28;20814;-52
2021/11/26 17:01:12;;;;;;;9.00;2.75;;;22.60;50.50;;;;;;5212206;28;20044;-53
2021/11/26 17:04:06;;;;;;;7.13;3.00;;;22.60;50.50;;;;;;5199274;28;20056;-48
2021/11/26 17:06:44;;;;;;;9.85;3.35;;;22.60;50.70;;;;;;5203127;28;20067;-48
2021/11/26 17:09:17;;;;;;;8.98;3.40;;;22.60;50.90;;;;;;5236576;28;20086;-49
2021/11/26 17:11:50;;;;;;;11.82;2.95;;;22.60;51.00;;;;;;5230596;28;20036;-47
2021/11/26 17:14:22;;;;;;;8.15;2.75;;;22.60;51.00;;;;;;5230132;28;20509;-49
2021/11/26 17:16:55;;;;;;;6.97;2.93;;;22.60;51.00;;;;;;5230690;28;21071;-47
2021/11/26 17:19:34;;;;;;;6.43;3.20;;;22.60;50.90;;;;;;5232570;28;20032;-53
2021/11/26 17:22:06;;;;;;;7.00;2.53;;;22.70;51.00;;;;;;5238017;28;20062;-48
2021/11/26 17:24:42;;;;;;;10.90;2.50;;;22.70;51.00;;;;;;5232282;28;20044;-50
2021/11/26 17:27:16;;;;;;;8.10;3.03;;;22.60;50.90;;;;;;5227778;28;20168;-50
2021/11/26 17:29:49;;;;;;;6.88;2.50;;;22.70;51.10;;;;;;5209232;28;20048;-51
2021/11/26 17:32:21;;;;;;;5.53;2.42;;;22.70;51.10;;;;;;5222747;28;20642;-48
2021/11/26 17:34:54;;;;;;;6.23;2.80;;;22.70;51.10;;;;;;5214033;28;20052;-47
2021/11/26 17:37:27;;;;;;;5.68;2.53;;;22.70;51.10;;;;;;5213925;28;20048;-48
2021/11/26 17:39:59;;;;;;;6.45;2.90;;;22.70;51.00;;;;;;5220184;28;20949;-47
2021/11/26 17:42:32;;;;;;;5.82;3.00;;;22.70;51.10;;;;;;5211879;28;20058;-55
2021/11/26 17:45:06;;;;;;;5.20;2.55;;;22.70;51.00;;;;;;5219846;28;20055;-53
2021/11/26 17:47:39;;;;;;;5.63;2.78;;;22.70;51.10;;;;;;5206581;28;20065;-51
2021/11/26 17:50:12;;;;;;;7.85;3.22;;;22.70;51.10;;;;;;5214038;28;20896;-49
2021/11/26 17:52:45;;;;;;;7.53;3.03;;;22.70;51.20;;;;;;5221371;28;20039;-53
2021/11/26 17:55:24;;;;;;;6.13;2.83;;;22.70;51.30;;;;;;5209514;28;20323;-50
2021/11/26 17:57:58;;;;;;;7.13;3.10;;;22.80;51.30;;;;;;5219341;28;20039;-51
2021/11/26 18:00:32;;;;;;;8.05;2.65;;;22.80;51.30;;;;;;5214596;28;20055;-52
2021/11/26 18:03:05;;;;;;;5.38;3.03;;;22.80;51.30;;;;;;5192053;28;20102;-54
2021/11/26 18:05:42;;;;;;;6.05;3.05;;;22.80;51.40;;;;;;5210282;28;20048;-49
2021/11/26 18:08:16;;;;;;;6.25;2.85;;;22.80;51.30;;;;;;5220080;28;20048;-50
2021/11/26 18:10:52;;;;;;;8.05;2.78;;;22.80;51.40;;;;;;5237163;28;20047;-54
2021/11/26 18:13:25;;;;;;;5.00;2.72;;;22.80;51.40;;;;;;5241249;28;20055;-52
2021/11/26 18:15:58;;;;;;;4.22;2.50;;;22.80;51.40;;;;;;5239750;28;20040;-53
2021/11/26 18:18:30;;;;;;;4.88;2.97;;;22.80;51.30;;;;;;5214868;28;20099;-51
2021/11/26 18:21:03;;;;;;;8.32;3.35;;;22.80;51.30;;;;;;5231127;28;20363;-48
2021/11/26 18:23:35;;;;;;;7.68;3.45;;;22.80;51.40;;;;;;5213094;28;21633;-49
2021/11/26 18:26:08;;;;;;;6.28;2.40;;;22.80;51.40;;;;;;5226265;28;20047;-49
2021/11/26 18:28:40;;;;;;;7.57;2.70;;;22.80;51.50;;;;;;5228876;28;20052;-52
2021/11/26 18:31:13;;;;;;;8.98;2.55;;;22.80;51.50;;;;;;4877113;28;9999813;-53
2021/11/26 18:33:51;;;;;;;3.05;2.33;;;22.80;51.50;;;;;;5217078;28;20040;-56
2021/11/26 18:36:24;;;;;;;4.88;2.58;;;22.80;51.50;;;;;;5242338;28;20403;-50
2021/11/26 18:39:02;;;;;;;5.40;2.97;;;22.80;51.50;;;;;;5238555;28;20056;-50
2021/11/26 18:41:35;;;;;;;5.40;2.80;;;22.80;51.50;;;;;;5209590;28;20518;-53
2021/11/26 18:44:16;;;;;;;9.43;5.60;;;22.80;51.50;;;;;;5213050;28;20044;-54
2021/11/26 18:46:49;;;;;;;17.02;7.15;;;22.80;50.20;;;;;;5228863;28;20048;-50
2021/11/26 18:49:24;;;;;;;14.30;8.15;;;22.70;48.90;;;;;;5224563;28;20055;-48
2021/11/26 18:51:57;;;;;;;9.88;8.18;;;22.70;48.00;;;;;;5199986;28;20048;-54
2021/11/26 18:54:29;;;;;;;11.98;7.85;;;22.60;47.20;;;;;;5221231;28;20044;-49
2021/11/26 18:57:03;;;;;;;11.60;8.05;;;22.60;46.80;;;;;;5232772;28;20423;-54
2021/11/26 18:59:41;;;;;;;12.45;9.00;;;22.50;46.40;;;;;;5238409;28;20036;-49
2021/11/26 19:02:14;;;;;;;14.10;8.52;;;22.50;45.70;;;;;;5238618;28;20614;-49
2021/11/26 19:04:47;;;;;;;12.13;9.05;;;22.40;45.50;;;;;;5217838;28;20186;-48
2021/11/26 19:07:19;;;;;;;14.02;9.02;;;22.40;44.90;;;;;;5239180;28;20058;-47
2021/11/26 19:09:51;;;;;;;12.40;9.23;;;22.40;44.50;;;;;;5234054;28;20059;-46
2021/11/26 19:12:24;;;;;;;17.60;8.60;;;22.30;44.10;;;;;;5233476;28;20059;-46
2021/11/26 19:14:58;;;;;;;9.82;8.07;;;22.30;44.00;;;;;;5233892;28;20048;-49
2021/11/26 19:17:31;;;;;;;12.15;7.47;;;22.30;44.40;;;;;;5238880;28;20431;-49
2021/11/26 19:20:04;;;;;;;10.85;7.40;;;22.30;44.70;;;;;;5240301;28;20530;-46
2021/11/26 19:22:37;;;;;;;10.18;7.25;;;22.20;44.80;;;;;;5239116;28;20067;-53
2021/11/26 19:25:11;;;;;;;11.85;7.05;;;22.20;45.10;;;;;;5217882;28;20056;-45
2021/11/26 19:27:44;;;;;;;10.13;7.60;;;22.20;45.20;;;;;;5189324;28;20041;-55
2021/11/26 19:30:18;;;;;;;16.05;6.93;;;22.20;45.20;;;;;;5232923;28;20060;-51
2021/11/26 19:32:50;;;;;;;11.18;6.57;;;22.20;45.30;;;;;;5214957;28;20445;-47
2021/11/26 19:35:23;;;;;;;10.40;5.73;;;22.20;45.30;;;;;;5213089;28;20040;-49
2021/11/26 19:37:57;;;;;;;10.27;6.47;;;22.20;45.40;;;;;;5212092;28;20048;-53
2021/11/26 19:40:30;;;;;;;10.10;5.85;;;22.20;45.30;;;;;;5199421;28;20051;-53
2021/11/26 19:43:05;;;;;;;9.43;6.60;;;22.20;45.30;;;;;;5179429;28;20032;-51
2021/11/26 19:45:40;;;;;;;9.90;6.28;;;22.20;45.20;;;;;;5204420;28;20056;-51
2021/11/26 19:48:13;;;;;;;10.05;6.28;;;22.10;45.10;;;;;;5190811;28;20048;-48
2021/11/26 19:50:46;;;;;;;8.35;6.10;;;22.10;45.10;;;;;;5204791;28;20152;-48
2021/11/26 19:53:19;;;;;;;8.20;6.40;;;22.10;45.10;;;;;;5214339;28;20048;-52
2021/11/26 19:55:51;;;;;;;7.63;6.22;;;22.10;45.20;;;;;;5209331;28;20055;-52
2021/11/26 19:58:24;;;;;;;9.13;6.63;;;22.10;45.20;;;;;;5201259;28;20062;-52
2021/11/26 20:00:57;;;;;;;8.95;7.15;;;22.10;45.20;;;;;;5202688;28;20047;-50
2021/11/26 20:03:31;;;;;;;14.43;8.07;;;22.10;45.00;;;;;;5207108;28;20055;-47
2021/11/26 20:06:03;;;;;;;13.05;8.38;;;22.00;44.90;;;;;;5201692;28;21067;-46
2021/11/26 20:08:37;;;;;;;11.55;8.25;;;22.00;44.90;;;;;;5190354;28;20048;-45
2021/11/26 20:11:10;;;;;;;11.63;8.10;;;22.00;45.00;;;;;;5161918;28;20059;-52
2021/11/26 20:13:42;;;;;;;15.23;8.93;;;21.90;44.20;;;;;;5199952;28;21759;-50
2021/11/26 20:16:15;;;;;;;13.40;10.68;;;21.90;43.60;;;;;;5178121;28;20995;-51
2021/11/26 20:18:47;;;;;;;15.85;11.27;;;21.80;43.20;;;;;;5180934;28;20047;-53
2021/11/26 20:21:21;;;;;;;16.50;11.82;;;21.80;42.60;;;;;;5172134;28;20048;-46
2021/11/26 20:23:53;;;;;;;;;;;21.70;42.70;;;;;;5203279;28;20059;-52
2021/11/26 20:26:26;;;;;;;16.20;9.00;;;21.60;43.60;;;;;;5201920;28;19927;-49
2021/11/26 20:28:59;;;;;;;12.40;8.00;;;21.60;44.30;;;;;;5214363;28;20052;-49
2021/11/26 20:31:31;;;;;;;14.20;7.93;;;21.70;44.90;;;;;;5187397;28;20054;-48
2021/11/26 20:34:04;;;;;;;10.60;6.97;;;21.70;45.10;;;;;;5205713;28;20365;-50
2021/11/26 20:36:37;;;;;;;12.75;7.45;;;21.70;45.30;;;;;;5225723;28;20036;-49
2021/11/26 20:39:09;;;;;;;12.77;7.18;;;21.70;45.60;;;;;;5213992;28;20493;-54
2021/11/26 20:41:43;;;;;;;14.75;7.65;;;21.70;45.80;;;;;;5219609;28;20048;-51
2021/11/26 20:44:18;;;;;;;9.40;6.85;;;21.70;46.60;;;;;;5218708;28;20048;-50
2021/11/26 20:46:50;;;;;;;8.75;6.97;;;21.80;46.20;;;;;;5202229;28;20248;-50
2021/11/26 20:49:23;;;;;;;8.70;6.50;;;21.80;46.30;;;;;;5198202;28;20162;-55
2021/11/26 20:51:56;;;;;;;12.85;6.88;;;21.80;46.40;;;;;;5219257;28;20161;-48
2021/11/26 20:54:28;;;;;;;8.73;6.40;;;21.80;46.60;;;;;;5213087;28;20040;-48